sensor_id;sensor_type;location;lat;lon;timestamp;temperature;humidity
5956;DHT22;3004;48.080;11.600;2023-07-13T10:55:34;17.50;99.90
5956;DHT22;3004;48.080;11.600;2023-07-13T11:23:30;18.00;99.90
5956;DHT22;3004;48.080;11.600;2023-07-13T11:53:08;18.70;99.90
5956;DHT22;3004;48.080;11.600;2023-07-13T11:55:38;18.90;99.90
5956;DHT22;3004;48.080;11.600;2023-07-13T11:58:23;19.20;99.90
5956;DHT22;3004;48.080;11.600;2023-07-13T12:00:57;19.50;99.90
5956;DHT22;3004;48.080;11.600;2023-07-13T12:03:26;19.30;99.90
5956;DHT22;3004;48.080;11.600;2023-07-13T12:05:59;19.20;99.90
5956;DHT22;3004;48.080;11.600;2023-07-13T12:08:38;19.30;99.90
5956;DHT22;3004;48.080;11.600;2023-07-13T12:11:13;19.30;99.90
5956;DHT22;3004;48.080;11.600;2023-07-13T12:13:43;19.40;99.90
5956;DHT22;3004;48.080;11.600;2023-07-13T12:16:16;19.40;99.90
5956;DHT22;3004;48.080;11.600;2023-07-13T12:22:37;20.20;99.90
5956;DHT22;3004;48.080;11.600;2023-07-13T12:25:12;20.60;99.90
5956;DHT22;3004;48.080;11.600;2023-07-13T12:31:05;20.90;99.90
5956;DHT22;3004;48.080;11.600;2023-07-13T12:33:33;20.70;99.90
5956;DHT22;3004;48.080;11.600;2023-07-13T12:36:12;20.50;99.90
5956;DHT22;3004;48.080;11.600;2023-07-13T12:38:45;20.30;99.90
5956;DHT22;3004;48.080;11.600;2023-07-13T12:41:27;20.20;99.90
5956;DHT22;3004;48.080;11.600;2023-07-13T12:44:01;20.10;99.90
5956;DHT22;3004;48.080;11.600;2023-07-13T12:46:28;20.20;99.90
5956;DHT22;3004;48.080;11.600;2023-07-13T12:48:57;20.70;99.90
5956;DHT22;3004;48.080;11.600;2023-07-13T12:51:29;20.90;99.90
5956;DHT22;3004;48.080;11.600;2023-07-13T12:53:58;21.20;99.90
5956;DHT22;3004;48.080;11.600;2023-07-13T13:00:26;20.40;99.90
5956;DHT22;3004;48.080;11.600;2023-07-13T14:00:42;21.50;99.90
5956;DHT22;3004;48.080;11.600;2023-07-13T14:03:20;21.60;99.90
5956;DHT22;3004;48.080;11.600;2023-07-13T14:05:49;21.60;99.90
5956;DHT22;3004;48.080;11.600;2023-07-13T14:08:34;21.60;99.90
5956;DHT22;3004;48.080;11.600;2023-07-13T14:11:16;21.70;99.90
5956;DHT22;3004;48.080;11.600;2023-07-13T14:13:53;21.60;99.90
5956;DHT22;3004;48.080;11.600;2023-07-13T14:16:35;21.60;99.90
5956;DHT22;3004;48.080;11.600;2023-07-13T14:19:17;21.50;99.90
5956;DHT22;3004;48.080;11.600;2023-07-13T14:21:56;21.40;99.90
5956;DHT22;3004;48.080;11.600;2023-07-13T14:24:26;21.30;99.90
5956;DHT22;3004;48.080;11.600;2023-07-13T14:26:54;21.20;99.90
5956;DHT22;3004;48.080;11.600;2023-07-13T14:29:29;21.20;99.90
5956;DHT22;3004;48.080;11.600;2023-07-13T14:32:14;21.00;99.90
5956;DHT22;3004;48.080;11.600;2023-07-13T14:35:00;21.00;99.90
5956;DHT22;3004;48.080;11.600;2023-07-13T14:38:07;21.10;99.90
5956;DHT22;3004;48.080;11.600;2023-07-13T14:40:28;21.70;99.90
5956;DHT22;3004;48.080;11.600;2023-07-13T14:42:55;22.00;99.90
5956;DHT22;3004;48.080;11.600;2023-07-13T14:45:24;22.00;99.90
5956;DHT22;3004;48.080;11.600;2023-07-13T14:54:16;21.60;99.90
5956;DHT22;3004;48.080;11.600;2023-07-13T14:56:43;22.10;99.90
5956;DHT22;3004;48.080;11.600;2023-07-13T14:59:21;22.30;99.90
5956;DHT22;3004;48.080;11.600;2023-07-13T15:02:16;22.50;99.90
5956;DHT22;3004;48.080;11.600;2023-07-13T15:04:59;22.60;99.90
5956;DHT22;3004;48.080;11.600;2023-07-13T15:07:26;22.60;99.90
5956;DHT22;3004;48.080;11.600;2023-07-13T15:09:53;22.40;99.90
5956;DHT22;3004;48.080;11.600;2023-07-13T15:12:21;22.50;99.90
5956;DHT22;3004;48.080;11.600;2023-07-13T15:14:48;22.40;99.90
5956;DHT22;3004;48.080;11.600;2023-07-13T15:17:25;22.30;99.90
5956;DHT22;3004;48.080;11.600;2023-07-13T15:19:57;22.40;99.90
5956;DHT22;3004;48.080;11.600;2023-07-13T15:22:27;22.50;99.90
5956;DHT22;3004;48.080;11.600;2023-07-13T15:24:54;22.60;99.90
5956;DHT22;3004;48.080;11.600;2023-07-13T15:27:23;22.50;99.90
5956;DHT22;3004;48.080;11.600;2023-07-13T15:29:52;22.40;99.90
5956;DHT22;3004;48.080;11.600;2023-07-13T15:32:19;22.30;99.90
5956;DHT22;3004;48.080;11.600;2023-07-13T15:34:47;22.20;99.90
5956;DHT22;3004;48.080;11.600;2023-07-13T15:37:17;22.00;99.90
5956;DHT22;3004;48.080;11.600;2023-07-13T15:39:46;22.00;99.90
5956;DHT22;3004;48.080;11.600;2023-07-13T15:42:16;22.20;99.90
5956;DHT22;3004;48.080;11.600;2023-07-13T15:44:45;22.30;99.90
5956;DHT22;3004;48.080;11.600;2023-07-13T15:47:17;22.40;99.90
5956;DHT22;3004;48.080;11.600;2023-07-13T15:49:51;22.40;99.90
5956;DHT22;3004;48.080;11.600;2023-07-13T15:55:41;22.50;99.90
5956;DHT22;3004;48.080;11.600;2023-07-13T15:58:30;22.30;99.90
5956;DHT22;3004;48.080;11.600;2023-07-13T16:01:02;22.20;99.90
5956;DHT22;3004;48.080;11.600;2023-07-13T16:03:29;22.10;99.90
5956;DHT22;3004;48.080;11.600;2023-07-13T16:06:23;21.90;99.90
5956;DHT22;3004;48.080;11.600;2023-07-13T16:09:02;22.10;99.90
5956;DHT22;3004;48.080;11.600;2023-07-13T16:17:44;22.40;99.90
5956;DHT22;3004;48.080;11.600;2023-07-13T16:20:15;22.50;99.90
5956;DHT22;3004;48.080;11.600;2023-07-13T16:22:45;22.40;99.90
5956;DHT22;3004;48.080;11.600;2023-07-13T16:25:17;22.40;99.90
5956;DHT22;3004;48.080;11.600;2023-07-13T16:28:05;22.40;99.90
5956;DHT22;3004;48.080;11.600;2023-07-13T16:30:34;22.30;99.90
5956;DHT22;3004;48.080;11.600;2023-07-13T16:33:04;22.30;99.90
5956;DHT22;3004;48.080;11.600;2023-07-13T16:35:36;22.30;99.90
5956;DHT22;3004;48.080;11.600;2023-07-13T16:38:14;22.20;99.90
5956;DHT22;3004;48.080;11.600;2023-07-13T16:43:35;22.10;99.90
5956;DHT22;3004;48.080;11.600;2023-07-13T16:46:09;22.10;99.90
5956;DHT22;3004;48.080;11.600;2023-07-13T16:48:41;22.10;99.90
5956;DHT22;3004;48.080;11.600;2023-07-13T16:51:08;22.20;99.90
5956;DHT22;3004;48.080;11.600;2023-07-13T16:53:37;22.10;99.90
5956;DHT22;3004;48.080;11.600;2023-07-13T16:56:14;22.10;99.90
5956;DHT22;3004;48.080;11.600;2023-07-13T16:58:43;22.10;99.90
5956;DHT22;3004;48.080;11.600;2023-07-13T17:01:17;21.90;99.90
5956;DHT22;3004;48.080;11.600;2023-07-13T17:03:46;21.90;99.90
5956;DHT22;3004;48.080;11.600;2023-07-13T17:06:22;21.90;99.90
5956;DHT22;3004;48.080;11.600;2023-07-13T17:08:52;21.80;99.90
5956;DHT22;3004;48.080;11.600;2023-07-13T17:11:24;21.70;99.90
5956;DHT22;3004;48.080;11.600;2023-07-13T17:13:53;21.60;99.90
5956;DHT22;3004;48.080;11.600;2023-07-13T17:16:21;21.70;99.90
5956;DHT22;3004;48.080;11.600;2023-07-13T17:18:51;21.50;99.90
5956;DHT22;3004;48.080;11.600;2023-07-13T17:21:25;21.40;99.90
5956;DHT22;3004;48.080;11.600;2023-07-13T17:23:54;21.40;99.90
5956;DHT22;3004;48.080;11.600;2023-07-13T17:26:22;21.50;99.90
5956;DHT22;3004;48.080;11.600;2023-07-13T17:28:49;21.50;99.90
5956;DHT22;3004;48.080;11.600;2023-07-13T17:31:19;21.50;99.90
5956;DHT22;3004;48.080;11.600;2023-07-13T17:33:52;21.40;99.90
5956;DHT22;3004;48.080;11.600;2023-07-13T17:36:19;21.30;99.90
5956;DHT22;3004;48.080;11.600;2023-07-13T17:38:48;21.20;99.90
5956;DHT22;3004;48.080;11.600;2023-07-13T17:41:17;21.10;99.90
5956;DHT22;3004;48.080;11.600;2023-07-13T17:43:44;21.00;99.90
5956;DHT22;3004;48.080;11.600;2023-07-13T17:46:20;21.00;99.90
5956;DHT22;3004;48.080;11.600;2023-07-13T17:48:49;20.80;99.90
5956;DHT22;3004;48.080;11.600;2023-07-13T17:54:18;20.70;99.90
5956;DHT22;3004;48.080;11.600;2023-07-13T17:56:46;20.60;99.90
5956;DHT22;3004;48.080;11.600;2023-07-13T17:59:17;20.70;99.90
5956;DHT22;3004;48.080;11.600;2023-07-13T18:01:51;20.70;99.90
5956;DHT22;3004;48.080;11.600;2023-07-13T18:04:19;20.60;99.90
5956;DHT22;3004;48.080;11.600;2023-07-13T18:06:53;20.50;99.90
5956;DHT22;3004;48.080;11.600;2023-07-13T18:09:41;20.40;99.90
5956;DHT22;3004;48.080;11.600;2023-07-13T18:12:14;20.20;99.90
5956;DHT22;3004;48.080;11.600;2023-07-13T18:14:47;20.20;99.90
5956;DHT22;3004;48.080;11.600;2023-07-13T18:17:18;20.00;99.90
5956;DHT22;3004;48.080;11.600;2023-07-13T18:19:47;19.90;99.90
5956;DHT22;3004;48.080;11.600;2023-07-13T18:22:22;19.70;99.90
5956;DHT22;3004;48.080;11.600;2023-07-13T18:24:53;19.60;99.90
5956;DHT22;3004;48.080;11.600;2023-07-13T18:27:20;19.50;99.90
5956;DHT22;3004;48.080;11.600;2023-07-13T18:29:47;19.40;99.90
5956;DHT22;3004;48.080;11.600;2023-07-13T18:32:18;19.30;99.90
5956;DHT22;3004;48.080;11.600;2023-07-13T18:34:49;19.30;99.90
5956;DHT22;3004;48.080;11.600;2023-07-13T18:37:21;19.20;99.90
5956;DHT22;3004;48.080;11.600;2023-07-13T18:39:55;19.10;99.90
5956;DHT22;3004;48.080;11.600;2023-07-13T18:42:35;19.00;99.90
5956;DHT22;3004;48.080;11.600;2023-07-13T18:45:09;18.90;99.90
5956;DHT22;3004;48.080;11.600;2023-07-13T18:47:53;18.80;99.90
5956;DHT22;3004;48.080;11.600;2023-07-13T18:50:31;18.70;99.90
5956;DHT22;3004;48.080;11.600;2023-07-13T18:53:01;18.60;99.90
5956;DHT22;3004;48.080;11.600;2023-07-13T18:55:41;18.60;99.90
5956;DHT22;3004;48.080;11.600;2023-07-13T18:58:20;18.50;99.90
5956;DHT22;3004;48.080;11.600;2023-07-13T19:00:50;18.40;99.90
5956;DHT22;3004;48.080;11.600;2023-07-13T19:03:30;18.40;99.90
5956;DHT22;3004;48.080;11.600;2023-07-13T19:06:09;18.40;99.90
5956;DHT22;3004;48.080;11.600;2023-07-13T19:08:39;18.40;99.90
5956;DHT22;3004;48.080;11.600;2023-07-13T19:11:13;18.40;99.90
5956;DHT22;3004;48.080;11.600;2023-07-13T19:13:41;18.40;99.90
5956;DHT22;3004;48.080;11.600;2023-07-13T19:16:10;18.30;99.90
5956;DHT22;3004;48.080;11.600;2023-07-13T19:18:49;18.30;99.90
5956;DHT22;3004;48.080;11.600;2023-07-13T19:21:33;18.30;99.90
5956;DHT22;3004;48.080;11.600;2023-07-13T19:24:19;18.30;99.90
5956;DHT22;3004;48.080;11.600;2023-07-13T19:26:49;18.40;99.90
5956;DHT22;3004;48.080;11.600;2023-07-13T19:29:20;18.30;99.90
5956;DHT22;3004;48.080;11.600;2023-07-13T19:31:47;18.30;99.90
5956;DHT22;3004;48.080;11.600;2023-07-13T19:34:18;18.30;99.90
5956;DHT22;3004;48.080;11.600;2023-07-13T19:36:47;18.20;99.90
5956;DHT22;3004;48.080;11.600;2023-07-13T19:39:22;18.10;99.90
5956;DHT22;3004;48.080;11.600;2023-07-13T19:41:54;18.10;99.90
5956;DHT22;3004;48.080;11.600;2023-07-13T19:44:22;18.10;99.90
5956;DHT22;3004;48.080;11.600;2023-07-13T19:46:51;18.10;99.90
5956;DHT22;3004;48.080;11.600;2023-07-13T19:49:24;18.10;99.90
5956;DHT22;3004;48.080;11.600;2023-07-13T19:51:51;18.00;99.90
5956;DHT22;3004;48.080;11.600;2023-07-13T19:54:18;18.10;99.90
5956;DHT22;3004;48.080;11.600;2023-07-13T19:56:45;18.10;99.90
5956;DHT22;3004;48.080;11.600;2023-07-13T19:59:22;18.10;99.90
5956;DHT22;3004;48.080;11.600;2023-07-13T20:01:52;18.10;99.90
5956;DHT22;3004;48.080;11.600;2023-07-13T20:04:19;18.10;99.90
5956;DHT22;3004;48.080;11.600;2023-07-13T20:06:46;18.10;99.90
5956;DHT22;3004;48.080;11.600;2023-07-13T20:09:16;18.00;99.90
5956;DHT22;3004;48.080;11.600;2023-07-13T20:11:43;18.00;99.90
5956;DHT22;3004;48.080;11.600;2023-07-13T20:14:19;17.90;99.90
5956;DHT22;3004;48.080;11.600;2023-07-13T20:16:47;18.00;99.90
5956;DHT22;3004;48.080;11.600;2023-07-13T20:19:16;17.90;99.90
5956;DHT22;3004;48.080;11.600;2023-07-13T20:21:45;17.90;99.90
5956;DHT22;3004;48.080;11.600;2023-07-13T20:24:18;17.90;99.90
5956;DHT22;3004;48.080;11.600;2023-07-13T20:26:46;17.80;99.90
5956;DHT22;3004;48.080;11.600;2023-07-13T20:29:14;17.80;99.90
5956;DHT22;3004;48.080;11.600;2023-07-13T20:31:44;17.80;99.90
5956;DHT22;3004;48.080;11.600;2023-07-13T20:34:18;17.60;99.90
5956;DHT22;3004;48.080;11.600;2023-07-13T20:36:46;17.60;99.90
5956;DHT22;3004;48.080;11.600;2023-07-13T20:39:18;17.50;99.90
5956;DHT22;3004;48.080;11.600;2023-07-13T20:41:46;17.40;99.90
5956;DHT22;3004;48.080;11.600;2023-07-13T20:44:14;17.50;99.90
5956;DHT22;3004;48.080;11.600;2023-07-13T20:46:43;17.40;99.90
5956;DHT22;3004;48.080;11.600;2023-07-13T20:49:11;17.40;99.90
5956;DHT22;3004;48.080;11.600;2023-07-13T20:51:39;17.30;99.90
5956;DHT22;3004;48.080;11.600;2023-07-13T20:54:10;17.30;99.90
5956;DHT22;3004;48.080;11.600;2023-07-13T20:56:41;17.30;99.90
5956;DHT22;3004;48.080;11.600;2023-07-13T20:59:09;17.20;99.90
5956;DHT22;3004;48.080;11.600;2023-07-13T21:01:37;17.20;99.90
5956;DHT22;3004;48.080;11.600;2023-07-13T21:04:08;17.10;99.90
5956;DHT22;3004;48.080;11.600;2023-07-13T21:06:36;17.10;99.90
5956;DHT22;3004;48.080;11.600;2023-07-13T21:09:12;17.00;99.90
5956;DHT22;3004;48.080;11.600;2023-07-13T21:11:43;17.00;99.90
5956;DHT22;3004;48.080;11.600;2023-07-13T21:14:10;17.00;99.90
5956;DHT22;3004;48.080;11.600;2023-07-13T21:16:37;16.90;99.90
5956;DHT22;3004;48.080;11.600;2023-07-13T21:19:11;16.90;99.90
5956;DHT22;3004;48.080;11.600;2023-07-13T21:21:38;16.90;99.90
5956;DHT22;3004;48.080;11.600;2023-07-13T21:24:08;16.90;99.90
5956;DHT22;3004;48.080;11.600;2023-07-13T21:26:36;16.90;99.90
5956;DHT22;3004;48.080;11.600;2023-07-13T21:29:03;16.90;99.90
5956;DHT22;3004;48.080;11.600;2023-07-13T21:31:31;16.90;99.90
5956;DHT22;3004;48.080;11.600;2023-07-13T21:34:03;16.90;99.90
5956;DHT22;3004;48.080;11.600;2023-07-13T21:36:38;16.90;99.90
5956;DHT22;3004;48.080;11.600;2023-07-13T21:39:10;16.80;99.90
5956;DHT22;3004;48.080;11.600;2023-07-13T21:41:38;16.70;99.90
5956;DHT22;3004;48.080;11.600;2023-07-13T21:44:17;16.70;99.90
5956;DHT22;3004;48.080;11.600;2023-07-13T21:46:47;16.60;99.90
5956;DHT22;3004;48.080;11.600;2023-07-13T21:49:14;16.50;99.90
5956;DHT22;3004;48.080;11.600;2023-07-13T21:51:43;16.40;99.90
5956;DHT22;3004;48.080;11.600;2023-07-13T21:54:14;16.30;99.90
5956;DHT22;3004;48.080;11.600;2023-07-13T21:56:48;16.30;99.90
5956;DHT22;3004;48.080;11.600;2023-07-13T21:59:17;16.20;99.90
5956;DHT22;3004;48.080;11.600;2023-07-13T22:01:45;16.10;99.90
5956;DHT22;3004;48.080;11.600;2023-07-13T22:04:14;16.10;99.90
5956;DHT22;3004;48.080;11.600;2023-07-13T22:06:43;16.00;99.90
5956;DHT22;3004;48.080;11.600;2023-07-13T22:09:15;16.00;99.90
5956;DHT22;3004;48.080;11.600;2023-07-13T22:11:45;15.90;99.90
5956;DHT22;3004;48.080;11.600;2023-07-13T22:14:12;15.80;99.90
5956;DHT22;3004;48.080;11.600;2023-07-13T22:16:39;15.80;99.90
5956;DHT22;3004;48.080;11.600;2023-07-13T22:19:12;15.70;99.90
5956;DHT22;3004;48.080;11.600;2023-07-13T22:21:40;15.70;99.90
5956;DHT22;3004;48.080;11.600;2023-07-13T22:24:13;15.60;99.90
5956;DHT22;3004;48.080;11.600;2023-07-13T22:26:42;15.60;99.90
5956;DHT22;3004;48.080;11.600;2023-07-13T22:29:12;15.60;99.90
5956;DHT22;3004;48.080;11.600;2023-07-13T22:31:40;15.50;99.90
5956;DHT22;3004;48.080;11.600;2023-07-13T22:34:16;15.40;99.90
5956;DHT22;3004;48.080;11.600;2023-07-13T22:36:44;15.50;99.90
5956;DHT22;3004;48.080;11.600;2023-07-13T22:39:14;15.40;99.90
5956;DHT22;3004;48.080;11.600;2023-07-13T22:41:42;15.50;99.90
5956;DHT22;3004;48.080;11.600;2023-07-13T22:44:11;15.40;99.90
5956;DHT22;3004;48.080;11.600;2023-07-13T22:46:40;15.40;99.90
5956;DHT22;3004;48.080;11.600;2023-07-13T22:49:18;15.30;99.90
5956;DHT22;3004;48.080;11.600;2023-07-13T22:51:45;15.20;99.90
5956;DHT22;3004;48.080;11.600;2023-07-13T22:54:17;15.10;99.90
5956;DHT22;3004;48.080;11.600;2023-07-13T22:56:44;15.10;99.90
5956;DHT22;3004;48.080;11.600;2023-07-13T22:59:12;15.00;99.90
5956;DHT22;3004;48.080;11.600;2023-07-13T23:01:40;14.90;99.90
5956;DHT22;3004;48.080;11.600;2023-07-13T23:04:15;14.80;99.90
5956;DHT22;3004;48.080;11.600;2023-07-13T23:06:43;14.70;99.90
5956;DHT22;3004;48.080;11.600;2023-07-13T23:09:37;14.70;99.90
5956;DHT22;3004;48.080;11.600;2023-07-13T23:12:09;14.60;99.90
5956;DHT22;3004;48.080;11.600;2023-07-13T23:14:36;14.50;99.90
5956;DHT22;3004;48.080;11.600;2023-07-13T23:17:04;14.50;99.90
5956;DHT22;3004;48.080;11.600;2023-07-13T23:19:32;14.50;99.90
5956;DHT22;3004;48.080;11.600;2023-07-13T23:22:00;14.40;99.90
5956;DHT22;3004;48.080;11.600;2023-07-13T23:24:32;14.40;99.90
5956;DHT22;3004;48.080;11.600;2023-07-13T23:27:01;14.30;99.90
5956;DHT22;3004;48.080;11.600;2023-07-13T23:29:28;14.30;99.90
5956;DHT22;3004;48.080;11.600;2023-07-13T23:31:55;14.30;99.90
5956;DHT22;3004;48.080;11.600;2023-07-13T23:34:26;14.20;99.90
5956;DHT22;3004;48.080;11.600;2023-07-13T23:36:54;14.20;99.90
5956;DHT22;3004;48.080;11.600;2023-07-13T23:39:21;14.10;99.90
5956;DHT22;3004;48.080;11.600;2023-07-13T23:41:48;14.00;99.90
5956;DHT22;3004;48.080;11.600;2023-07-13T23:44:17;14.00;99.90
5956;DHT22;3004;48.080;11.600;2023-07-13T23:46:48;14.00;99.90
5956;DHT22;3004;48.080;11.600;2023-07-13T23:49:21;14.00;99.90
5956;DHT22;3004;48.080;11.600;2023-07-13T23:51:49;13.90;99.90
5956;DHT22;3004;48.080;11.600;2023-07-13T23:54:16;13.90;99.90
5956;DHT22;3004;48.080;11.600;2023-07-13T23:56:44;13.90;99.90
5956;DHT22;3004;48.080;11.600;2023-07-13T23:59:12;14.00;99.90
